createdAt,value
2023-03-02T00:03:42.014Z,-2.25
2023-03-02T00:07:47.056Z,-2.27
2023-03-02T00:11:45.976Z,-2.31
2023-03-02T00:15:44.038Z,-2.34
2023-03-02T00:19:43.025Z,-2.33
2023-03-02T00:23:40.939Z,-2.29
2023-03-02T00:27:38.918Z,-2.26
2023-03-02T00:31:37.069Z,-2.25
2023-03-02T00:35:34.917Z,-2.23
2023-03-02T00:39:32.966Z,-2.20
2023-03-02T00:43:34.927Z,-2.15
2023-03-02T00:47:32.984Z,-2.07
2023-03-02T00:51:31.875Z,-2.00
2023-03-02T00:55:29.936Z,-1.92
2023-03-02T00:59:36.866Z,-1.84
2023-03-02T01:03:45.892Z,-1.78
2023-03-02T01:07:43.871Z,-1.73
2023-03-02T01:11:42.213Z,-1.67
2023-03-02T01:15:39.845Z,-1.63
2023-03-02T01:19:38.079Z,-1.60
2023-03-02T01:23:35.844Z,-1.59
2023-03-02T01:27:35.821Z,-1.55
2023-03-02T01:31:33.915Z,-1.55
2023-03-02T01:35:31.843Z,-1.57
2023-03-02T01:39:29.910Z,-1.58
2023-03-02T01:43:30.975Z,-1.58
2023-03-02T01:47:39.838Z,-1.55
2023-03-02T01:51:44.937Z,-1.51
2023-03-02T01:55:45.897Z,-1.45
2023-03-02T01:59:46.807Z,-1.41
2023-03-02T02:03:45.807Z,-1.36
2023-03-02T02:07:43.820Z,-1.31
2023-03-02T02:11:41.756Z,-1.24
2023-03-02T02:15:39.864Z,-1.19
2023-03-02T02:20:03.729Z,-1.15
2023-03-02T02:24:10.819Z,-1.11
2023-03-02T02:28:08.770Z,-1.06
2023-03-02T02:32:16.871Z,-0.99
2023-03-02T02:36:21.727Z,-0.92
2023-03-02T02:40:27.711Z,-0.83
2023-03-02T02:44:31.715Z,-0.77
2023-03-02T02:48:31.813Z,-0.70
2023-03-02T02:52:33.728Z,-0.64
2023-03-02T02:56:33.003Z,-0.59
2023-03-02T03:00:34.690Z,-0.54
2023-03-02T03:04:35.879Z,-0.49
2023-03-02T03:08:58.723Z,-0.44
2023-03-02T03:13:01.687Z,-0.40
2023-03-02T03:17:00.771Z,-0.34
2023-03-02T03:20:58.847Z,-0.30
2023-03-02T03:24:58.670Z,-0.26
2023-03-02T03:28:57.691Z,-0.23
2023-03-02T03:32:56.641Z,-0.20
2023-03-02T03:36:54.672Z,-0.17
2023-03-02T03:40:53.758Z,-0.13
2023-03-02T03:44:51.665Z,-0.11
2023-03-02T03:48:49.640Z,-0.10
2023-03-02T03:52:47.724Z,-0.07
2023-03-02T03:56:54.273Z,-0.02
2023-03-02T04:00:53.773Z,0.02
2023-03-02T04:04:51.652Z,0.08
2023-03-02T04:08:49.589Z,0.13
2023-03-02T04:12:49.587Z,0.17
2023-03-02T04:16:47.606Z,0.23
2023-03-02T04:20:46.634Z,0.28
2023-03-02T04:24:44.716Z,0.33
2023-03-02T04:28:42.595Z,0.39
2023-03-02T04:32:40.586Z,0.42
2023-03-02T04:36:38.883Z,0.47
2023-03-02T04:40:37.669Z,0.51
2023-03-02T04:44:35.587Z,0.58
2023-03-02T04:48:33.550Z,0.59
2023-03-02T04:52:31.538Z,0.58
2023-03-02T04:56:29.596Z,0.55
2023-03-02T05:00:28.531Z,0.54
2023-03-02T05:04:27.666Z,0.56
2023-03-02T05:08:25.530Z,0.61
2023-03-02T05:12:25.616Z,0.67
2023-03-02T05:16:23.628Z,0.74
2023-03-02T05:20:21.519Z,0.80
2023-03-02T05:24:19.541Z,0.86
2023-03-02T05:28:18.510Z,0.91
2023-03-02T05:32:16.519Z,0.97
2023-03-02T05:36:17.142Z,1.03
2023-03-02T05:40:17.672Z,1.10
2023-03-02T05:44:18.491Z,1.15
2023-03-02T05:48:16.515Z,1.20
2023-03-02T05:52:14.669Z,1.24
2023-03-02T05:56:12.485Z,1.27
2023-03-02T06:00:11.453Z,1.26
2023-03-02T06:04:09.432Z,1.26
2023-03-02T06:08:07.457Z,1.30
2023-03-02T06:12:05.524Z,1.36
2023-03-02T06:16:03.561Z,1.42
2023-03-02T06:20:01.411Z,1.46
2023-03-02T06:23:59.425Z,1.50
2023-03-02T06:28:00.400Z,1.52
2023-03-02T06:31:58.473Z,1.59
2023-03-02T06:35:56.535Z,1.65
2023-03-02T06:39:55.581Z,1.72
2023-03-02T06:43:53.437Z,1.78
2023-03-02T06:47:51.522Z,1.84
2023-03-02T06:51:49.406Z,1.93
2023-03-02T06:55:47.448Z,2.05
2023-03-02T06:59:38.597Z,2.18
2023-03-02T07:03:02.605Z,2.29
2023-03-02T07:06:26.864Z,2.36
2023-03-02T07:09:50.807Z,2.42
2023-03-02T07:13:14.919Z,2.47
2023-03-02T07:16:38.787Z,2.52
2023-03-02T07:20:05.359Z,2.59
2023-03-02T07:23:29.252Z,2.66
2023-03-02T07:26:53.082Z,2.73
2023-03-02T07:30:21.294Z,2.83
2023-03-02T07:33:45.230Z,2.96
2023-03-02T07:37:09.163Z,3.11
2023-03-02T07:40:34.834Z,3.08
2023-03-02T07:43:58.860Z,3.04
2023-03-02T07:47:24.595Z,3.04
2023-03-02T07:50:48.578Z,2.78
2023-03-02T07:54:12.556Z,2.68
2023-03-02T07:57:36.572Z,2.62
2023-03-02T08:01:02.588Z,2.48
2023-03-02T08:04:27.010Z,2.56
2023-03-02T08:07:50.874Z,2.69
2023-03-02T08:11:17.782Z,2.86
2023-03-02T08:14:41.628Z,3.00
2023-03-02T08:18:05.688Z,2.99
2023-03-02T08:21:30.498Z,2.79
2023-03-02T08:24:54.498Z,2.68
2023-03-02T08:28:18.508Z,2.64
2023-03-02T08:31:42.396Z,2.48
2023-03-02T08:35:07.434Z,2.45
2023-03-02T08:38:32.912Z,2.61
2023-03-02T08:41:57.048Z,2.76
2023-03-02T08:45:21.181Z,2.69
2023-03-02T08:48:45.714Z,2.54
2023-03-02T08:52:09.685Z,2.55
2023-03-02T08:55:37.532Z,2.50
2023-03-02T08:59:05.105Z,2.49
2023-03-02T09:02:29.074Z,2.50
2023-03-02T09:05:53.168Z,2.49
2023-03-02T09:09:17.054Z,2.38
2023-03-02T09:12:41.049Z,2.31
2023-03-02T09:16:05.922Z,2.31
2023-03-02T09:19:38.846Z,2.32
2023-03-02T09:23:02.778Z,2.36
2023-03-02T09:26:27.710Z,2.31
2023-03-02T09:29:51.689Z,2.30
2023-03-02T09:33:15.794Z,2.30
2023-03-02T09:36:40.074Z,2.24
2023-03-02T09:40:04.157Z,2.26
2023-03-02T09:43:28.249Z,2.21
2023-03-02T09:46:57.416Z,2.28
2023-03-02T09:50:32.053Z,2.37
2023-03-02T09:54:11.478Z,2.39
2023-03-02T09:57:39.928Z,2.43
2023-03-02T10:01:10.467Z,2.37
2023-03-02T10:04:45.389Z,2.39
2023-03-02T10:08:20.520Z,2.33
2023-03-02T10:11:54.907Z,2.46
2023-03-02T10:15:27.217Z,2.89
2023-03-02T10:19:11.241Z,3.34
2023-03-02T10:22:43.615Z,3.69
2023-03-02T10:26:28.230Z,3.71
2023-03-02T10:30:09.452Z,3.52
2023-03-02T10:33:36.867Z,3.49
2023-03-02T10:37:02.344Z,3.46
2023-03-02T10:40:42.614Z,3.37
2023-03-02T10:44:30.697Z,3.27
2023-03-02T10:48:20.713Z,3.46
2023-03-02T10:51:44.647Z,3.47
2023-03-02T10:55:15.359Z,3.41
2023-03-02T10:58:39.761Z,3.42
2023-03-02T11:02:15.204Z,3.43
2023-03-02T11:05:41.501Z,3.51
2023-03-02T11:09:07.980Z,3.63
2023-03-02T11:12:33.325Z,3.42
2023-03-02T11:16:00.468Z,3.32
2023-03-02T11:19:41.597Z,3.32
2023-03-02T11:23:26.014Z,3.44
2023-03-02T11:27:17.841Z,3.52
2023-03-02T11:30:48.804Z,3.52
2023-03-02T11:34:32.658Z,3.61
2023-03-02T11:38:01.004Z,3.83
2023-03-02T11:41:36.194Z,4.08
2023-03-02T11:45:05.563Z,4.27
2023-03-02T11:48:32.576Z,4.38
2023-03-02T11:52:00.000Z,4.46
2023-03-02T11:55:29.323Z,4.19
2023-03-02T11:59:04.750Z,3.93
2023-03-02T12:02:29.315Z,3.99
2023-03-02T12:05:53.347Z,4.18
2023-03-02T12:09:31.235Z,4.22
2023-03-02T12:13:07.585Z,4.30
2023-03-02T12:16:43.848Z,4.26
2023-03-02T12:20:23.396Z,4.07
2023-03-02T12:23:50.381Z,3.96
2023-03-02T12:27:14.457Z,3.77
2023-03-02T12:30:38.516Z,3.56
2023-03-02T12:34:23.375Z,3.34
2023-03-02T12:37:53.581Z,3.32
2023-03-02T12:41:31.879Z,3.27
2023-03-02T12:45:25.472Z,3.38
2023-03-02T12:49:13.035Z,3.18
2023-03-02T12:52:38.059Z,2.98
2023-03-02T12:56:02.105Z,3.02
2023-03-02T12:59:29.342Z,3.16
2023-03-02T13:02:56.214Z,3.22
2023-03-02T13:06:21.501Z,3.37
2023-03-02T13:09:56.137Z,3.38
2023-03-02T13:13:33.835Z,3.07
2023-03-02T13:17:03.013Z,2.92
2023-03-02T13:20:30.687Z,2.84
2023-03-02T13:23:54.593Z,2.75
2023-03-02T13:27:21.911Z,2.61
2023-03-02T13:30:48.092Z,2.56
2023-03-02T13:34:27.740Z,2.57
2023-03-02T13:38:26.004Z,2.59
2023-03-02T13:41:55.812Z,2.57
2023-03-02T13:45:23.074Z,2.46
2023-03-02T13:49:10.651Z,2.40
2023-03-02T13:52:35.362Z,2.48
2023-03-02T13:56:01.341Z,2.60
2023-03-02T13:59:25.563Z,2.65
2023-03-02T14:02:50.740Z,2.70
2023-03-02T14:06:14.791Z,2.73
2023-03-02T14:09:38.718Z,2.74
2023-03-02T14:13:12.623Z,2.78
2023-03-02T14:16:37.208Z,2.86
2023-03-02T14:20:01.010Z,2.88
2023-03-02T14:23:27.189Z,2.82
2023-03-02T14:26:51.273Z,2.74
2023-03-02T14:30:31.883Z,2.72
2023-03-02T14:34:31.913Z,2.70
2023-03-02T14:38:29.893Z,2.58
2023-03-02T14:42:30.753Z,2.55
2023-03-02T14:46:28.856Z,2.55
2023-03-02T14:50:26.879Z,2.50
2023-03-02T14:54:32.750Z,2.55
2023-03-02T14:58:39.714Z,2.70
2023-03-02T15:02:38.877Z,2.79
2023-03-02T15:06:45.711Z,2.79
2023-03-02T15:10:46.747Z,2.73
2023-03-02T15:14:44.713Z,2.66
2023-03-02T15:18:42.777Z,2.62
2023-03-02T15:22:40.849Z,2.63
2023-03-02T15:26:39.029Z,2.60
2023-03-02T15:30:36.698Z,2.46
2023-03-02T15:34:36.824Z,2.30
2023-03-02T15:38:34.696Z,2.18
2023-03-02T15:42:32.781Z,2.06
2023-03-02T15:46:30.815Z,1.99
2023-03-02T15:50:28.743Z,1.89
2023-03-02T15:54:26.772Z,1.83
2023-03-02T15:58:25.717Z,1.79
2023-03-02T16:02:24.650Z,1.74
2023-03-02T16:06:23.715Z,1.69
2023-03-02T16:10:22.648Z,1.63
2023-03-02T16:14:22.760Z,1.60
2023-03-02T16:18:24.823Z,1.59
2023-03-02T16:22:22.878Z,1.53
2023-03-02T16:26:22.840Z,1.51
2023-03-02T16:30:23.157Z,1.48
2023-03-02T16:34:23.600Z,1.45
2023-03-02T16:38:21.680Z,1.39
2023-03-02T16:42:19.571Z,1.31
2023-03-02T16:46:17.673Z,1.26
2023-03-02T16:50:16.597Z,1.22
2023-03-02T16:54:14.655Z,1.18
2023-03-02T16:58:12.636Z,1.19
2023-03-02T17:02:10.698Z,1.23
2023-03-02T17:06:08.565Z,1.21
2023-03-02T17:10:06.757Z,1.18
2023-03-02T17:14:04.555Z,1.14
2023-03-02T17:18:02.707Z,1.09
2023-03-02T17:22:00.683Z,1.03
2023-03-02T17:25:58.663Z,1.00
2023-03-02T17:29:56.550Z,1.01
2023-03-02T17:33:54.617Z,0.95
2023-03-02T17:37:52.537Z,0.92
2023-03-02T17:41:50.593Z,0.91
2023-03-02T17:45:49.584Z,0.92
2023-03-02T17:49:47.558Z,0.88
2023-03-02T17:53:45.572Z,0.90
2023-03-02T17:57:44.575Z,0.84
2023-03-02T18:01:44.591Z,0.78
2023-03-02T18:05:42.609Z,0.65
2023-03-02T18:09:40.532Z,0.60
2023-03-02T18:13:38.465Z,0.57
2023-03-02T18:17:36.439Z,0.52
2023-03-02T18:21:34.557Z,0.52
2023-03-02T18:25:32.544Z,0.55
2023-03-02T18:29:30.443Z,0.59
2023-03-02T18:33:28.456Z,0.64
2023-03-02T18:37:26.444Z,0.62
2023-03-02T18:41:26.440Z,0.54
2023-03-02T18:45:35.535Z,0.55
2023-03-02T18:49:33.393Z,0.58
2023-03-02T18:53:32.414Z,0.54
2023-03-02T18:57:30.409Z,0.50
2023-03-02T19:01:28.450Z,0.51
2023-03-02T19:05:26.454Z,0.54
2023-03-02T19:09:25.453Z,0.51
2023-03-02T19:13:23.439Z,0.54
2023-03-02T19:17:21.461Z,0.64
2023-03-02T19:21:20.327Z,0.73
2023-03-02T19:25:18.604Z,0.71
2023-03-02T19:29:16.424Z,0.68
2023-03-02T19:33:16.510Z,0.65
2023-03-02T19:37:14.345Z,0.62
2023-03-02T19:41:14.414Z,0.58
2023-03-02T19:45:12.420Z,0.56
2023-03-02T19:49:10.394Z,0.53
2023-03-02T19:53:09.335Z,0.54
2023-03-02T19:57:09.340Z,0.56
2023-03-02T20:01:09.432Z,0.62
2023-03-02T20:05:08.337Z,0.68
2023-03-02T20:09:07.319Z,0.64
2023-03-02T20:13:07.570Z,0.61
2023-03-02T20:17:05.337Z,0.61
2023-03-02T20:21:03.419Z,0.61
2023-03-02T20:25:01.397Z,0.54
2023-03-02T20:29:00.303Z,0.48
2023-03-02T20:32:58.484Z,0.48
2023-03-02T20:37:02.987Z,0.46
2023-03-02T20:41:01.303Z,0.41
2023-03-02T20:45:01.612Z,0.37
2023-03-02T20:48:59.303Z,0.39
2023-03-02T20:52:57.389Z,0.38
2023-03-02T20:56:56.398Z,0.35
2023-03-02T21:00:59.253Z,0.38
2023-03-02T21:04:57.310Z,0.45
2023-03-02T21:08:55.349Z,0.45
2023-03-02T21:12:55.611Z,0.44
2023-03-02T21:16:54.199Z,0.39
2023-03-02T21:20:54.202Z,0.36
2023-03-02T21:24:52.306Z,0.37
2023-03-02T21:28:51.193Z,0.39
2023-03-02T21:32:52.189Z,0.44
2023-03-02T21:36:50.163Z,0.41
2023-03-02T21:40:53.299Z,0.39
2023-03-02T21:44:51.173Z,0.35
2023-03-02T21:48:49.256Z,0.28
2023-03-02T21:52:40.684Z,0.18
2023-03-02T21:56:39.175Z,0.10
2023-03-02T22:00:49.176Z,0.02
2023-03-02T22:04:48.197Z,-0.08
2023-03-02T22:08:46.213Z,-0.15
2023-03-02T22:12:44.192Z,-0.22
2023-03-02T22:16:47.103Z,-0.28
2023-03-02T22:20:45.166Z,-0.33
2023-03-02T22:24:48.163Z,-0.35
2023-03-02T22:28:47.275Z,-0.34
2023-03-02T22:32:51.107Z,-0.30
2023-03-02T22:36:49.133Z,-0.26
2023-03-02T22:40:49.205Z,-0.23
2023-03-02T22:44:47.231Z,-0.22
2023-03-02T22:48:45.073Z,-0.20
2023-03-02T22:52:53.100Z,-0.19
2023-03-02T22:56:53.061Z,-0.23
2023-03-02T23:00:55.180Z,-0.25
2023-03-02T23:04:53.028Z,-0.27
2023-03-02T23:08:58.100Z,-0.28
2023-03-02T23:12:56.075Z,-0.28
2023-03-02T23:16:54.156Z,-0.27
2023-03-02T23:20:52.039Z,-0.26
2023-03-02T23:24:50.063Z,-0.23
2023-03-02T23:28:41.186Z,-0.20
2023-03-02T23:32:39.125Z,-0.18
2023-03-02T23:36:37.993Z,-0.17
2023-03-02T23:40:36.034Z,-0.16
2023-03-02T23:44:34.004Z,-0.16
2023-03-02T23:48:32.024Z,-0.14
2023-03-02T23:57:18.595Z,-0.11
